Terminal Aerodrome Forecast
Issued by NWS Cleveland, OH

Home | Current Version | Previous Version | Graphics & Text | Print | Product List | Glossary Off
Versions: 1 2 3 4 5 6 7 8 9 10 11 12 13 14 15 16 17 18 19 20 21 22 23 24

000
FTUS41 KCLE 162053 AAA
TAFCLE
TAF AMD
KCLE 162053Z 1621/1724 02009KT P6SM FEW060
     FM170200 10006KT P6SM BKN200
     FM171300 16006KT P6SM -SHRA SCT040 OVC070 PROB30 1713/1715 5SM
      SHRA BR BKN030
     FM171700 18007KT P6SM VCSH BKN060
     FM172100 20010KT P6SM -SHRA VCTS BKN045CB=

USA.gov is the U.S. government's official web portal to all federal, state and local government web resources and services.